createdAt,value
2023-04-24T00:02:52.251Z,22.00
2023-04-24T00:07:55.133Z,22.10
2023-04-24T00:12:57.594Z,22.20
2023-04-24T00:17:59.684Z,22.40
2023-04-24T00:23:01.774Z,22.50
2023-04-24T00:28:03.816Z,22.70
2023-04-24T00:33:06.007Z,22.60
2023-04-24T00:38:08.101Z,22.80
2023-04-24T00:43:10.800Z,22.70
2023-04-24T00:48:12.977Z,22.80
2023-04-24T00:53:15.178Z,22.80
2023-04-24T00:58:17.320Z,22.80
2023-04-24T01:03:23.730Z,22.80
2023-04-24T01:08:27.347Z,22.80
2023-04-24T01:13:29.968Z,22.80
2023-04-24T01:18:33.234Z,22.90
2023-04-24T01:23:35.852Z,22.90
2023-04-24T01:28:37.980Z,23.00
2023-04-24T01:33:41.976Z,23.00
2023-04-24T01:38:44.628Z,23.00
2023-04-24T01:43:46.758Z,23.10
2023-04-24T01:48:48.786Z,23.00
2023-04-24T01:53:51.350Z,23.10
2023-04-24T01:58:54.658Z,23.20
2023-04-24T02:03:56.788Z,23.30
2023-04-24T02:09:02.116Z,23.50
2023-04-24T02:14:04.401Z,23.50
2023-04-24T02:19:07.061Z,24.00
2023-04-24T02:24:09.126Z,24.20
2023-04-24T02:29:11.444Z,24.40
2023-04-24T02:34:13.438Z,24.40
2023-04-24T02:39:17.487Z,24.50
2023-04-24T02:44:19.884Z,24.70
2023-04-24T02:49:21.952Z,24.60
2023-04-24T02:54:24.142Z,24.80
2023-04-24T02:59:28.206Z,24.90
2023-04-24T03:04:30.582Z,24.90
2023-04-24T03:09:32.734Z,24.80
2023-04-24T03:14:34.727Z,24.70
2023-04-24T03:19:36.735Z,24.80
2023-04-24T03:24:39.797Z,24.80
2023-04-24T03:29:42.601Z,24.70
2023-04-24T03:34:46.596Z,24.60
2023-04-24T03:39:50.103Z,24.70
2023-04-24T03:44:53.963Z,24.60
2023-04-24T03:49:57.978Z,24.60
2023-04-24T03:55:00.396Z,24.60
2023-04-24T04:00:05.378Z,24.60
2023-04-24T04:10:18.623Z,24.60
2023-04-24T04:15:20.728Z,24.60
2023-04-24T04:20:24.784Z,24.70
2023-04-24T04:25:27.192Z,24.70
2023-04-24T04:30:33.120Z,24.70
2023-04-24T04:35:37.488Z,24.60
2023-04-24T04:40:39.907Z,24.50
2023-04-24T04:45:43.931Z,24.50
2023-04-24T04:51:07.412Z,24.50
2023-04-24T04:56:09.480Z,24.50
2023-04-24T05:01:12.368Z,24.30
2023-04-24T05:06:15.041Z,24.40
2023-04-24T05:11:17.175Z,24.20
2023-04-24T05:16:19.539Z,24.10
2023-04-24T05:21:23.028Z,24.10
2023-04-24T05:26:25.868Z,23.80
2023-04-24T05:31:28.054Z,23.90
2023-04-24T05:36:30.129Z,24.00
2023-04-24T05:41:32.275Z,23.90
2023-04-24T05:46:34.328Z,23.90
2023-04-24T05:51:36.691Z,23.90
2023-04-24T06:01:43.509Z,24.00
2023-04-24T06:06:46.370Z,24.00
2023-04-24T06:11:49.081Z,24.20
2023-04-24T06:21:54.617Z,24.30
2023-04-24T06:26:58.271Z,24.30
2023-04-24T06:32:00.466Z,24.30
2023-04-24T06:37:02.562Z,24.40
2023-04-24T06:42:04.678Z,24.50
2023-04-24T06:47:09.371Z,24.50
2023-04-24T06:52:11.771Z,24.50
2023-04-24T06:57:13.849Z,24.30
2023-04-24T07:02:15.949Z,23.90
2023-04-24T07:07:18.359Z,23.50
2023-04-24T07:12:22.525Z,23.20
2023-04-24T07:17:24.560Z,23.00
2023-04-24T07:22:26.679Z,22.90
2023-04-24T07:27:28.701Z,22.80
2023-04-24T07:32:31.088Z,21.80
2023-04-24T07:37:33.259Z,21.50
2023-04-24T07:42:35.752Z,20.90
2023-04-24T07:47:39.249Z,21.10
2023-04-24T07:52:41.359Z,20.90
2023-04-24T07:57:43.421Z,20.40
2023-04-24T08:02:45.637Z,20.10
2023-04-24T08:07:49.760Z,19.10
2023-04-24T08:12:52.220Z,19.40
2023-04-24T08:17:54.340Z,18.80
2023-04-24T08:22:57.449Z,17.90
2023-04-24T08:27:59.474Z,17.80
2023-04-24T08:33:01.686Z,17.10
2023-04-24T08:38:03.822Z,17.50
2023-04-24T08:43:06.104Z,16.50
2023-04-24T08:48:16.576Z,16.80
2023-04-24T08:53:26.309Z,16.60
2023-04-24T08:58:29.243Z,17.00
2023-04-24T09:03:32.444Z,16.70
2023-04-24T09:08:34.724Z,16.80
2023-04-24T09:13:37.058Z,16.50
2023-04-24T09:18:39.120Z,17.10
2023-04-24T09:23:41.744Z,17.00
2023-04-24T09:28:44.967Z,16.70
2023-04-24T09:33:58.470Z,16.10
2023-04-24T09:39:02.853Z,16.00
2023-04-24T09:44:15.548Z,15.90
2023-04-24T09:49:21.296Z,15.60
2023-04-24T09:54:23.455Z,15.50
2023-04-24T09:59:25.745Z,15.10
2023-04-24T10:04:29.024Z,14.80
2023-04-24T10:09:31.186Z,14.90
2023-04-24T10:14:33.203Z,14.70
2023-04-24T10:19:36.748Z,15.20
2023-04-24T10:24:39.256Z,14.60
2023-04-24T10:29:42.424Z,14.90
2023-04-24T10:34:44.466Z,14.50
2023-04-24T10:39:49.110Z,14.10
2023-04-24T10:44:51.164Z,14.20
2023-04-24T10:49:53.486Z,14.10
2023-04-24T10:54:58.852Z,12.50
2023-04-24T11:00:30.559Z,13.30
2023-04-24T11:05:49.980Z,13.60
2023-04-24T11:10:59.670Z,13.50
2023-04-24T11:16:21.442Z,13.50
2023-04-24T11:21:23.533Z,13.60
2023-04-24T11:26:31.317Z,12.80
2023-04-24T11:36:36.309Z,12.10
2023-04-24T11:41:38.438Z,11.90
2023-04-24T11:46:41.432Z,10.80
2023-04-24T11:51:52.278Z,11.80
2023-04-24T11:56:56.935Z,12.00
2023-04-24T12:01:58.968Z,12.10
2023-04-24T12:07:04.730Z,11.70
2023-04-24T12:12:07.283Z,10.80
2023-04-24T12:17:09.314Z,11.10
2023-04-24T12:22:11.354Z,11.20
2023-04-24T12:27:20.719Z,10.60
2023-04-24T12:32:22.855Z,10.30
2023-04-24T12:47:30.488Z,9.80
2023-04-24T12:52:32.567Z,8.70
2023-04-24T12:57:35.744Z,8.90
2023-04-24T13:02:38.282Z,8.90
2023-04-24T13:07:40.973Z,8.30
2023-04-24T13:12:46.269Z,8.20
2023-04-24T13:17:48.416Z,7.50
2023-04-24T13:27:52.941Z,7.00
2023-04-24T13:32:55.052Z,7.10
2023-04-24T13:37:57.269Z,6.70
2023-04-24T13:42:59.269Z,6.60
2023-04-24T13:48:02.678Z,6.60
2023-04-24T13:53:04.752Z,6.90
2023-04-24T13:58:07.711Z,7.30
2023-04-24T14:03:09.963Z,7.50
2023-04-24T14:08:12.762Z,7.30
2023-04-24T14:13:15.395Z,7.50
2023-04-24T14:18:18.263Z,8.20
2023-04-24T14:23:20.745Z,9.30
2023-04-24T14:28:22.874Z,9.60
2023-04-24T14:33:25.028Z,8.80
2023-04-24T14:38:27.632Z,6.70
2023-04-24T14:48:32.068Z,5.20
2023-04-24T14:53:34.080Z,4.90
2023-04-24T14:58:36.364Z,5.90
2023-04-24T15:03:38.635Z,6.70
2023-04-24T15:08:41.014Z,7.10
2023-04-24T15:13:43.097Z,7.80
2023-04-24T15:23:47.844Z,8.50
2023-04-24T15:28:50.146Z,7.70
2023-04-24T15:33:52.273Z,6.80
2023-04-24T15:38:54.386Z,6.40
2023-04-24T15:43:56.369Z,6.30
2023-04-24T15:48:58.431Z,6.50
2023-04-24T15:54:00.493Z,6.80
2023-04-24T15:59:03.623Z,7.40
2023-04-24T16:04:06.805Z,7.90
2023-04-24T16:09:09.950Z,8.70
2023-04-24T16:14:11.976Z,7.30
2023-04-24T16:19:14.087Z,6.60
2023-04-24T16:24:16.057Z,5.80
2023-04-24T16:29:18.529Z,4.20
2023-04-24T16:34:21.236Z,2.00
2023-04-24T16:39:23.413Z,1.50
2023-04-24T16:44:25.422Z,1.70
2023-04-24T16:49:30.909Z,1.90
2023-04-24T16:54:36.113Z,2.60
2023-04-24T16:59:38.126Z,2.90
2023-04-24T17:04:40.172Z,3.30
2023-04-24T17:09:43.306Z,3.80
2023-04-24T17:14:45.389Z,4.30
2023-04-24T17:19:47.472Z,4.80
2023-04-24T17:24:49.542Z,5.30
2023-04-24T17:29:52.312Z,5.50
2023-04-24T17:34:54.441Z,5.80
2023-04-24T17:39:56.531Z,6.10
2023-04-24T17:44:58.573Z,6.40
2023-04-24T17:50:00.718Z,7.00
2023-04-24T17:55:02.709Z,6.80
2023-04-24T18:00:05.235Z,6.90
2023-04-24T18:05:06.989Z,7.30
2023-04-24T18:10:09.114Z,7.80
2023-04-24T18:15:14.605Z,8.00
2023-04-24T18:20:18.045Z,8.30
2023-04-24T18:25:26.214Z,8.70
2023-04-24T18:30:30.964Z,8.80
2023-04-24T18:35:33.032Z,9.00
2023-04-24T18:40:35.038Z,9.30
2023-04-24T18:45:37.055Z,9.50
2023-04-24T18:50:40.699Z,9.80
2023-04-24T18:55:42.893Z,9.70
2023-04-24T19:00:45.160Z,10.00
2023-04-24T19:05:47.237Z,10.20
2023-04-24T19:10:49.428Z,10.30
2023-04-24T19:15:51.467Z,10.80
2023-04-24T19:20:53.610Z,10.80
2023-04-24T19:25:55.727Z,11.00
2023-04-24T19:30:58.839Z,11.20
2023-04-24T19:36:01.001Z,11.50
2023-04-24T19:41:03.369Z,11.80
2023-04-24T19:46:05.819Z,11.90
2023-04-24T19:51:07.888Z,12.10
2023-04-24T19:56:10.444Z,12.20
2023-04-24T20:01:12.520Z,12.40
2023-04-24T20:06:14.579Z,12.60
2023-04-24T20:11:16.772Z,12.70
2023-04-24T20:16:18.834Z,12.90
2023-04-24T20:21:21.125Z,13.10
2023-04-24T20:26:23.591Z,13.20
2023-04-24T20:31:25.754Z,13.40
2023-04-24T20:36:28.633Z,13.50
2023-04-24T20:41:30.671Z,13.80
2023-04-24T20:51:36.845Z,14.30
2023-04-24T20:56:38.860Z,14.40
2023-04-24T21:01:42.066Z,14.50
2023-04-24T21:06:44.211Z,14.70
2023-04-24T21:11:46.200Z,14.90
2023-04-24T21:16:48.291Z,15.00
2023-04-24T21:21:50.503Z,15.10
2023-04-24T21:26:52.552Z,15.10
2023-04-24T21:31:54.737Z,15.40
2023-04-24T21:36:56.954Z,15.50
2023-04-24T21:41:58.939Z,15.60
2023-04-24T21:52:03.339Z,16.30
2023-04-24T21:57:05.553Z,16.70
2023-04-24T22:02:07.630Z,16.60
2023-04-24T22:07:09.926Z,16.80
2023-04-24T22:12:12.063Z,17.10
2023-04-24T22:17:15.223Z,17.20
2023-04-24T22:22:17.319Z,17.40
2023-04-24T22:27:19.506Z,17.60
2023-04-24T22:32:21.614Z,17.70
2023-04-24T22:37:23.652Z,17.90
2023-04-24T22:42:26.068Z,18.10
2023-04-24T22:47:28.852Z,18.20
2023-04-24T22:52:31.073Z,18.20
2023-04-24T22:57:33.276Z,18.40
2023-04-24T23:02:35.362Z,18.80
2023-04-24T23:07:38.287Z,18.90
2023-04-24T23:12:40.409Z,19.10
2023-04-24T23:17:42.627Z,19.20
2023-04-24T23:27:47.234Z,19.70
2023-04-24T23:32:49.366Z,19.90
2023-04-24T23:37:51.345Z,19.90
2023-04-24T23:43:05.687Z,19.90
2023-04-24T23:48:08.776Z,20.00
2023-04-24T23:53:10.991Z,20.10
2023-04-24T23:58:13.368Z,20.20
